Atyla — YJTM7 — position and weather

sailwx.info

Track history (hours):
 
Tides and Currents Weather Stations Pressure Air Temp Water Temp Dewpoint Dewpoint Depression Visibility Wind Speed Wind Dir Waves Ship Positions

Atyla

Ship's website: http://atylaship.com

Last reported at 2020-Sep-21 10:27 UTC. Time now 2020-Oct-01 14:06 UTC.
Position N 43°16' W 002°57'.
Warning: this ship's position is 10 days out of date.

Length 22 m.

Type: Sailing vessel. MMSI: 577192000.

Date/timePositionNaut miles runAvg speedWind from/ knotsBaromVisibWave heightAir tempDewpointWater temp
2020-Sep-21 10:27N 43°16' W 002°57'0 0.0
2020-Sep-21 07:15N 43°16' W 002°57'0 0.0
2020-Sep-21 05:09N 43°16' W 002°57'0 0.0
2020-Sep-21 01:21N 43°16' W 002°57'0 0.0
2020-Sep-20 23:27N 43°16' W 002°57'0 0.0
2020-Sep-20 16:57N 43°16' W 002°57'0 0.0
2020-Sep-20 12:21N 43°16' W 002°57'0 0.0
2020-Sep-20 10:30N 43°16' W 002°57'0 0.0
2020-Sep-19 09:58N 43°16' W 002°57'0 0.0
2020-Sep-18 19:40N 43°16' W 002°57'0 0.0
2020-Sep-18 17:52N 43°16' W 002°57'0 0.0
2020-Sep-18 13:10N 43°16' W 002°57'0 0.0
2020-Sep-18 10:28N 43°16' W 002°57'0 0.0
2020-Sep-18 07:28N 43°16' W 002°57'0 0.0
2020-Sep-18 06:46N 43°16' W 002°57'0 0.0
2020-Sep-18 04:37N 43°16' W 002°57'0 0.0
2020-Sep-18 02:46N 43°16' W 002°57'2 0.2
2020-Sep-17 15:21N 43°18' W 002°58'6 7.0
2020-Sep-17 14:30N 43°22' W 003°03'11 4.3
2020-Sep-17 12:00N 43°30' W 002°53'9 2.2
2020-Sep-17 08:00N 43°25' W 002°43'0 0.0
2020-Sep-17 07:30N 43°25' W 002°43'0 0.0
2020-Sep-17 07:00N 43°25' W 002°43'0 0.0
2020-Sep-17 06:30N 43°25' W 002°43'0 0.0
2020-Sep-17 03:30N 43°25' W 002°43'0 0.0
2020-Sep-17 03:00N 43°25' W 002°43'0 0.0
2020-Sep-17 01:30N 43°25' W 002°43'0 0.0
2020-Sep-17 01:00N 43°25' W 002°43'0 0.0
2020-Sep-17 00:30N 43°25' W 002°43'0 0.0
2020-Sep-17 00:00N 43°25' W 002°43'0 0.0
2020-Sep-16 20:30N 43°25' W 002°43'0 0.0
2020-Sep-16 18:27N 43°25' W 002°43'0 0.6
2020-Sep-16 18:00N 43°25' W 002°43'4 4.2
2020-Sep-16 17:00N 43°30' W 002°43'2 3.7
2020-Sep-16 16:30N 43°31' W 002°43'8 1.7
2020-Sep-16 11:45N 43°32' W 002°54'8 1.6
2020-Sep-16 06:52N 43°25' W 002°57'0 0.0
2020-Sep-16 04:58N 43°25' W 002°57'0 0.0
2020-Sep-16 04:28N 43°25' W 002°57'0 0.0
2020-Sep-16 03:52N 43°25' W 002°57'0 0.0
2020-Sep-16 02:43N 43°25' W 002°57'0 0.0
2020-Sep-15 23:46N 43°25' W 002°57'0 0.0
2020-Sep-15 23:28N 43°25' W 002°57'0 0.3
2020-Sep-15 22:20N 43°25' W 002°57'13 7.1
2020-Sep-15 20:30N 43°28' W 003°15'  
Track history (hours):
 
Tides and Currents Weather Stations Pressure Air Temp Water Temp Dewpoint Dewpoint Depression Visibility Wind Speed Wind Dir Waves Ship Positions

Atyla

Ship's website: http://atylaship.com

Last reported at 2020-Sep-21 10:27 UTC. Time now 2020-Oct-01 14:06 UTC.
Position N 43°16' W 002°57'.
Warning: this ship's position is 10 days out of date.

Length 22 m.

Type: Sailing vessel. MMSI: 577192000.

Date/timePositionNaut miles runAvg speedWind from/ knotsBaromVisibWave heightAir tempDewpointWater temp
2020-Sep-21 10:27N 43°16' W 002°57'0 0.0
2020-Sep-21 07:15N 43°16' W 002°57'0 0.0
2020-Sep-21 05:09N 43°16' W 002°57'0 0.0
2020-Sep-21 01:21N 43°16' W 002°57'0 0.0
2020-Sep-20 23:27N 43°16' W 002°57'0 0.0
2020-Sep-20 16:57N 43°16' W 002°57'0 0.0
2020-Sep-20 12:21N 43°16' W 002°57'0 0.0
2020-Sep-20 10:30N 43°16' W 002°57'0 0.0
2020-Sep-19 09:58N 43°16' W 002°57'0 0.0
2020-Sep-18 19:40N 43°16' W 002°57'0 0.0
2020-Sep-18 17:52N 43°16' W 002°57'0 0.0
2020-Sep-18 13:10N 43°16' W 002°57'0 0.0
2020-Sep-18 10:28N 43°16' W 002°57'0 0.0
2020-Sep-18 07:28N 43°16' W 002°57'0 0.0
2020-Sep-18 06:46N 43°16' W 002°57'0 0.0
2020-Sep-18 04:37N 43°16' W 002°57'0 0.0
2020-Sep-18 02:46N 43°16' W 002°57'2 0.2
2020-Sep-17 15:21N 43°18' W 002°58'6 7.0
2020-Sep-17 14:30N 43°22' W 003°03'11 4.3
2020-Sep-17 12:00N 43°30' W 002°53'9 2.2
2020-Sep-17 08:00N 43°25' W 002°43'0 0.0
2020-Sep-17 07:30N 43°25' W 002°43'0 0.0
2020-Sep-17 07:00N 43°25' W 002°43'0 0.0
2020-Sep-17 06:30N 43°25' W 002°43'0 0.0
2020-Sep-17 03:30N 43°25' W 002°43'0 0.0
2020-Sep-17 03:00N 43°25' W 002°43'0 0.0
2020-Sep-17 01:30N 43°25' W 002°43'0 0.0
2020-Sep-17 01:00N 43°25' W 002°43'0 0.0
2020-Sep-17 00:30N 43°25' W 002°43'0 0.0
2020-Sep-17 00:00N 43°25' W 002°43'0 0.0
2020-Sep-16 20:30N 43°25' W 002°43'0 0.0
2020-Sep-16 18:27N 43°25' W 002°43'0 0.6
2020-Sep-16 18:00N 43°25' W 002°43'4 4.2
2020-Sep-16 17:00N 43°30' W 002°43'2 3.7
2020-Sep-16 16:30N 43°31' W 002°43'8 1.7
2020-Sep-16 11:45N 43°32' W 002°54'8 1.6
2020-Sep-16 06:52N 43°25' W 002°57'0 0.0
2020-Sep-16 04:58N 43°25' W 002°57'0 0.0
2020-Sep-16 04:28N 43°25' W 002°57'0 0.0
2020-Sep-16 03:52N 43°25' W 002°57'0 0.0
2020-Sep-16 02:43N 43°25' W 002°57'0 0.0
2020-Sep-15 23:46N 43°25' W 002°57'0 0.0
2020-Sep-15 23:28N 43°25' W 002°57'0 0.3
2020-Sep-15 22:20N 43°25' W 002°57'13 7.1
2020-Sep-15 20:30N 43°28' W 003°15'  

Dump ship's entire track history